Time;durP1;ratioP1;P1;durP2;ratioP2;P2;SDS_P1;SDS_P2;PMS_P1;PMS_P2;Temp;Humidity;BMP_temperature;BMP_pressure;BME280_temperature;BME280_humidity;BME280_pressure;Samples;Min_cycle;Max_cycle;Signal;HPM_P1;HPM_P2
2022/04/20 00:00:57;;;;;;;0.10;0.10;;;;;;;;;;4179256;28;20057;-33
2022/04/20 00:02:59;;;;;;;0.20;0.10;;;;;;;;;;4178229;28;20145;-29
2022/04/20 00:05:00;;;;;;;0.22;0.10;;;;;;;;;;4178474;28;20107;-29
2022/04/20 00:07:01;;;;;;;0.30;0.20;;;;;;;;;;4179024;28;20397;-33
2022/04/20 00:09:02;;;;;;;0.40;0.20;;;;;;;;;;4178846;28;20061;-33
2022/04/20 00:11:04;;;;;;;0.65;0.15;;;;;;;;;;4179920;28;20069;-30
2022/04/20 00:13:05;;;;;;;0.43;0.10;;;;;;;;;;4178127;28;20107;-29
2022/04/20 00:15:07;;;;;;;0.30;0.20;;;;;;;;;;4179191;28;20099;-30
2022/04/20 00:17:08;;;;;;;0.25;0.10;;;;;;;;;;4179213;28;20613;-29
2022/04/20 00:19:09;;;;;;;0.20;0.20;;;;;;;;;;4178866;28;20056;-29
2022/04/20 00:21:11;;;;;;;0.50;0.17;;;;;;;;;;4179391;28;20110;-29
2022/04/20 00:23:13;;;;;;;0.20;0.15;;;;;;;;;;4178500;28;20060;-32
2022/04/20 00:25:14;;;;;;;0.08;0.08;;;;;;;;;;4178883;28;20102;-32
2022/04/20 00:27:15;;;;;;;0.20;0.15;;;;;;;;;;4178393;28;20045;-32
2022/04/20 00:29:16;;;;;;;0.20;0.10;;;;;;;;;;4177428;28;20689;-31
2022/04/20 00:31:19;;;;;;;0.10;0.10;;;;;;;;;;4176300;28;20060;-30
2022/04/20 00:33:20;;;;;;;0.35;0.10;;;;;;;;;;4164251;28;20127;-34
2022/04/20 00:35:21;;;;;;;0.20;0.10;;;;;;;;;;4164694;28;20463;-30
2022/04/20 00:37:22;;;;;;;0.20;0.15;;;;;;;;;;4164624;28;20099;-31
2022/04/20 00:39:24;;;;;;;0.45;0.15;;;;;;;;;;4163954;28;20394;-31
2022/04/20 00:41:25;;;;;;;0.30;0.10;;;;;;;;;;4163288;28;20083;-31
2022/04/20 00:43:28;;;;;;;0.20;0.20;;;;;;;;;;4164353;28;20049;-34
2022/04/20 00:45:30;;;;;;;0.10;0.10;;;;;;;;;;4162942;28;20485;-30
2022/04/20 00:47:32;;;;;;;0.10;0.10;;;;;;;;;;4164170;28;20049;-30
2022/04/20 00:49:36;;;;;;;0.17;0.15;;;;;;;;;;4162758;28;20552;-31
2022/04/20 00:51:49;;;;;;;0.10;0.10;;;;;;;;;;4162731;28;20489;-30
2022/04/20 00:53:51;;;;;;;1.58;0.10;;;;;;;;;;4145904;28;20054;-30
2022/04/20 00:55:54;;;;;;;0.10;0.10;;;;;;;;;;4164244;28;20057;-30
2022/04/20 00:57:55;;;;;;;0.10;0.10;;;;;;;;;;4162795;28;20053;-30
2022/04/20 00:59:59;;;;;;;0.45;0.20;;;;;;;;;;4175176;28;20065;-33
2022/04/20 01:02:02;;;;;;;1.30;0.20;;;;;;;;;;4162926;28;20513;-31
2022/04/20 01:04:05;;;;;;;0.28;0.25;;;;;;;;;;4179182;28;20065;-30
2022/04/20 01:06:22;;;;;;;0.20;0.20;;;;;;;;;;4179360;28;20048;-31
2022/04/20 01:08:49;;;;;;;0.45;0.15;;;;;;;;;;4177874;28;20075;-30
2022/04/20 01:10:57;;;;;;;0.17;0.10;;;;;;;;;;4179166;28;20053;-30
2022/04/20 01:13:20;;;;;;;0.30;0.20;;;;;;;;;;4180421;28;20055;-30
2022/04/20 01:15:36;;;;;;;0.25;0.10;;;;;;;;;;4178747;28;20094;-32
2022/04/20 01:17:49;;;;;;;0.17;0.10;;;;;;;;;;4180442;28;20060;-30
2022/04/20 01:20:12;;;;;;;;;;;;;;;;;;4181009;28;20068;-31
2022/04/20 01:22:37;;;;;;;0.10;0.10;;;;;;;;;;4179715;28;19920;-30
2022/04/20 01:25:00;;;;;;;0.70;0.08;;;;;;;;;;4178487;28;20060;-30
2022/04/20 01:27:02;;;;;;;0.10;0.10;;;;;;;;;;4180150;28;20053;-30
2022/04/20 01:29:29;;;;;;;0.20;0.15;;;;;;;;;;4177900;28;20057;-30
2022/04/20 01:31:36;;;;;;;0.22;0.10;;;;;;;;;;4179004;28;20103;-31
2022/04/20 01:33:50;;;;;;;0.20;0.20;;;;;;;;;;4178888;28;20056;-32
2022/04/20 01:35:51;;;;;;;0.28;0.20;;;;;;;;;;4163377;28;20046;-30
2022/04/20 01:37:52;;;;;;;0.10;0.10;;;;;;;;;;4163369;28;20107;-32
2022/04/20 01:39:54;;;;;;;0.20;0.10;;;;;;;;;;4162960;28;20111;-31
2022/04/20 01:41:55;;;;;;;0.28;0.20;;;;;;;;;;4178664;28;20563;-30
2022/04/20 01:43:57;;;;;;;0.00;0.00;;;;;;;;;;4162075;28;20425;-32
2022/04/20 01:46:05;;;;;;;0.22;0.10;;;;;;;;;;4162229;28;20129;-30
2022/04/20 01:48:21;;;;;;;0.60;0.20;;;;;;;;;;4178452;28;20049;-30
2022/04/20 01:53:21;;;;;;;0.20;0.20;;;;;;;;;;4162781;28;20107;-31
2022/04/20 01:55:48;;;;;;;0.20;0.20;;;;;;;;;;4162844;28;20053;-33
2022/04/20 01:58:18;;;;;;;0.40;0.20;;;;;;;;;;4163165;28;20397;-31
2022/04/20 02:00:33;;;;;;;0.30;0.20;;;;;;;;;;4161876;28;20103;-30
2022/04/20 02:02:54;;;;;;;0.45;0.22;;;;;;;;;;4163001;28;20119;-30
2022/04/20 02:05:31;;;;;;;0.10;0.10;;;;;;;;;;4177441;28;20049;-33
2022/04/20 02:07:55;;;;;;;0.35;0.20;;;;;;;;;;4166022;28;20053;-31
2022/04/20 02:10:06;;;;;;;0.40;0.10;;;;;;;;;;4146379;28;20054;-30
2022/04/20 02:12:08;;;;;;;0.10;0.10;;;;;;;;;;4161999;28;20057;-32
2022/04/20 02:14:26;;;;;;;0.40;0.20;;;;;;;;;;4147775;28;20064;-30
2022/04/20 02:16:34;;;;;;;1.65;0.17;;;;;;;;;;4161648;28;20405;-31
2022/04/20 02:18:54;;;;;;;0.30;0.15;;;;;;;;;;4163164;28;20111;-30
2022/04/20 02:21:05;;;;;;;0.40;0.20;;;;;;;;;;4178179;28;20509;-32
2022/04/20 02:23:07;;;;;;;0.13;0.13;;;;;;;;;;4161651;28;20053;-30
2022/04/20 02:25:08;;;;;;;0.25;0.20;;;;;;;;;;4177569;28;20124;-33
2022/04/20 02:27:09;;;;;;;0.10;0.00;;;;;;;;;;4177973;28;20056;-30
2022/04/20 02:29:10;;;;;;;0.10;0.10;;;;;;;;;;4177445;28;20312;-34
2022/04/20 02:31:12;;;;;;;0.40;0.10;;;;;;;;;;4162791;28;20541;-30
2022/04/20 02:33:13;;;;;;;0.17;0.17;;;;;;;;;;4162749;28;20103;-33
2022/04/20 02:35:15;;;;;;;0.10;0.10;;;;;;;;;;4145222;28;20054;-30
2022/04/20 02:37:16;;;;;;;0.10;0.10;;;;;;;;;;4162962;28;20103;-31
2022/04/20 02:39:19;;;;;;;0.22;0.15;;;;;;;;;;4176332;28;20053;-31
2022/04/20 02:41:20;;;;;;;0.65;0.30;;;;;;;;;;4162806;28;20493;-31
2022/04/20 02:43:21;;;;;;;0.55;0.20;;;;;;;;;;4162626;28;20493;-30
2022/04/20 02:45:22;;;;;;;0.20;0.20;;;;;;;;;;4162722;28;20398;-31
2022/04/20 02:47:23;;;;;;;0.20;0.20;;;;;;;;;;4163002;28;20053;-31
2022/04/20 02:49:25;;;;;;;0.10;0.10;;;;;;;;;;4162705;28;20050;-30
2022/04/20 02:51:26;;;;;;;0.40;0.20;;;;;;;;;;4162719;28;20057;-30
2022/04/20 02:53:27;;;;;;;0.20;0.10;;;;;;;;;;4161009;28;20560;-30
2022/04/20 02:55:28;;;;;;;0.10;0.10;;;;;;;;;;4162624;28;20057;-30
2022/04/20 02:57:29;;;;;;;0.10;0.10;;;;;;;;;;4162785;28;20262;-30
2022/04/20 02:59:30;;;;;;;0.10;0.10;;;;;;;;;;4162262;28;20489;-32
2022/04/20 03:01:36;;;;;;;0.35;0.10;;;;;;;;;;4161418;28;20555;-30
2022/04/20 03:03:42;;;;;;;0.20;0.10;;;;;;;;;;4161470;28;20099;-31
2022/04/20 03:05:58;;;;;;;0.25;0.20;;;;;;;;;;4161579;28;20061;-30
2022/04/20 03:08:00;;;;;;;0.15;0.15;;;;;;;;;;4161339;28;20049;-31
2022/04/20 03:10:03;;;;;;;0.20;0.20;;;;;;;;;;4161024;28;20061;-30
2022/04/20 03:12:10;;;;;;;0.55;0.20;;;;;;;;;;4145836;28;20053;-30
2022/04/20 03:14:17;;;;;;;0.10;0.10;;;;;;;;;;4161088;28;20057;-33
2022/04/20 03:16:19;;;;;;;0.15;0.15;;;;;;;;;;4161442;28;20050;-30
2022/04/20 03:18:21;;;;;;;0.10;0.10;;;;;;;;;;4161079;28;20061;-31
2022/04/20 03:20:23;;;;;;;0.10;0.10;;;;;;;;;;4161137;28;20061;-30
2022/04/20 03:22:25;;;;;;;0.10;0.10;;;;;;;;;;4161221;28;20505;-32
2022/04/20 03:24:27;;;;;;;0.17;0.15;;;;;;;;;;4177069;28;20057;-30
2022/04/20 03:26:39;;;;;;;0.20;0.20;;;;;;;;;;4177553;28;20052;-30
2022/04/20 03:29:09;;;;;;;0.10;0.10;;;;;;;;;;4173682;28;20500;-31
2022/04/20 03:31:11;;;;;;;0.10;0.10;;;;;;;;;;4177372;28;20524;-30
2022/04/20 03:33:12;;;;;;;0.20;0.10;;;;;;;;;;4177748;28;20068;-30
2022/04/20 03:35:14;;;;;;;0.32;0.10;;;;;;;;;;4177531;28;20057;-30
2022/04/20 03:37:15;;;;;;;0.25;0.20;;;;;;;;;;4178618;28;20451;-30
2022/04/20 03:39:16;;;;;;;0.10;0.10;;;;;;;;;;4177000;28;20056;-30
2022/04/20 03:41:19;;;;;;;0.47;0.22;;;;;;;;;;4163707;28;20072;-30
2022/04/20 03:43:20;;;;;;;0.22;0.10;;;;;;;;;;4181726;28;20319;-31
2022/04/20 03:45:21;;;;;;;0.20;0.20;;;;;;;;;;4181633;28;20057;-31
2022/04/20 03:47:22;;;;;;;0.17;0.10;;;;;;;;;;4181531;28;20053;-31
2022/04/20 03:49:24;;;;;;;0.28;0.15;;;;;;;;;;4181441;28;20057;-30
2022/04/20 03:51:25;;;;;;;0.28;0.10;;;;;;;;;;4181764;28;20092;-30
2022/04/20 03:53:27;;;;;;;0.30;0.20;;;;;;;;;;4163385;28;20057;-31
2022/04/20 03:55:31;;;;;;;0.15;0.13;;;;;;;;;;4164055;28;20054;-30
2022/04/20 03:57:32;;;;;;;0.20;0.20;;;;;;;;;;4180075;28;20541;-30
2022/04/20 03:59:36;;;;;;;0.35;0.22;;;;;;;;;;4179694;28;20061;-31
2022/04/20 04:01:37;;;;;;;0.30;0.20;;;;;;;;;;4180229;28;20057;-30
2022/04/20 04:03:38;;;;;;;0.20;0.10;;;;;;;;;;4180095;28;20099;-33
2022/04/20 04:05:49;;;;;;;0.73;0.20;;;;;;;;;;4180045;28;20474;-30
2022/04/20 04:07:55;;;;;;;0.22;0.20;;;;;;;;;;4180065;28;20512;-30
2022/04/20 04:10:04;;;;;;;0.20;0.15;;;;;;;;;;4179603;28;20063;-30
2022/04/20 04:12:07;;;;;;;0.47;0.10;;;;;;;;;;4180035;28;20413;-30
2022/04/20 04:14:10;;;;;;;0.35;0.17;;;;;;;;;;4179835;28;20553;-32
2022/04/20 04:16:11;;;;;;;0.20;0.20;;;;;;;;;;4179910;28;20045;-31
2022/04/20 04:18:13;;;;;;;1.25;0.20;;;;;;;;;;4179656;28;20103;-30
2022/04/20 04:20:21;;;;;;;0.20;0.20;;;;;;;;;;4179865;28;20393;-30
2022/04/20 04:22:23;;;;;;;0.20;0.20;;;;;;;;;;4179801;28;20110;-31
2022/04/20 04:24:45;;;;;;;0.20;0.20;;;;;;;;;;4179258;28;20155;-32
2022/04/20 04:26:48;;;;;;;0.10;0.10;;;;;;;;;;4179955;28;20045;-31
2022/04/20 04:28:51;;;;;;;0.10;0.10;;;;;;;;;;4179506;28;20056;-30
2022/04/20 04:30:52;;;;;;;0.40;0.20;;;;;;;;;;4179921;28;20061;-30
2022/04/20 04:32:53;;;;;;;1.02;0.17;;;;;;;;;;4180912;28;20060;-30
2022/04/20 04:34:55;;;;;;;0.20;0.20;;;;;;;;;;4179525;28;20480;-31
2022/04/20 04:36:57;;;;;;;0.25;0.10;;;;;;;;;;4179610;28;20045;-30
2022/04/20 04:38:58;;;;;;;0.10;0.10;;;;;;;;;;4179102;28;20053;-30
2022/04/20 04:41:07;;;;;;;0.20;0.10;;;;;;;;;;4179458;28;20060;-30
2022/04/20 04:43:10;;;;;;;0.20;0.10;;;;;;;;;;4179472;28;20064;-32
2022/04/20 04:50:00;;;;;;;0.28;0.10;;;;;;;;;;4165277;28;20088;-30
2022/04/20 04:52:02;;;;;;;0.30;0.22;;;;;;;;;;4179033;28;20103;-30
2022/04/20 04:54:03;;;;;;;0.10;0.10;;;;;;;;;;4178729;28;20061;-32
2022/04/20 04:56:06;;;;;;;1.05;0.28;;;;;;;;;;4179025;28;20700;-32
2022/04/20 04:58:14;;;;;;;0.57;0.20;;;;;;;;;;4179056;28;20056;-31
2022/04/20 05:00:17;;;;;;;0.13;0.10;;;;;;;;;;4177107;28;20061;-32
2022/04/20 05:02:36;;;;;;;0.10;0.10;;;;;;;;;;4176951;28;20061;-30
2022/04/20 05:04:42;;;;;;;0.20;0.10;;;;;;;;;;4177088;28;20061;-31
2022/04/20 05:06:44;;;;;;;0.10;0.10;;;;;;;;;;4177088;28;20045;-30
2022/04/20 05:09:04;;;;;;;0.20;0.20;;;;;;;;;;4177741;28;20091;-30
2022/04/20 05:11:07;;;;;;;0.13;0.13;;;;;;;;;;4178326;28;20170;-31
2022/04/20 05:13:08;;;;;;;0.40;0.20;;;;;;;;;;4160311;28;20053;-31
2022/04/20 05:15:10;;;;;;;0.55;0.20;;;;;;;;;;4176869;28;20057;-30
2022/04/20 05:17:12;;;;;;;1.48;0.30;;;;;;;;;;4176897;28;20049;-31
2022/04/20 05:19:14;;;;;;;0.68;0.20;;;;;;;;;;4160084;28;20144;-34
2022/04/20 05:21:16;;;;;;;0.68;0.20;;;;;;;;;;4176705;28;20053;-32
2022/04/20 05:23:18;;;;;;;0.65;0.20;;;;;;;;;;4176143;28;20516;-32
2022/04/20 05:25:19;;;;;;;0.73;0.22;;;;;;;;;;4176271;28;20106;-31
2022/04/20 05:27:21;;;;;;;0.43;0.30;;;;;;;;;;4176587;28;20069;-31
2022/04/20 05:29:42;;;;;;;0.73;0.40;;;;;;;;;;4177483;28;20552;-32
2022/04/20 05:31:44;;;;;;;0.20;0.20;;;;;;;;;;4176418;28;20057;-30
2022/04/20 05:33:49;;;;;;;0.22;0.22;;;;;;;;;;4176540;28;20072;-31
2022/04/20 05:35:51;;;;;;;0.50;0.30;;;;;;;;;;4176164;28;20053;-30
2022/04/20 05:42:52;;;;;;;0.47;0.35;;;;;;;;;;4176049;28;20447;-31
2022/04/20 05:44:53;;;;;;;0.52;0.32;;;;;;;;;;4176164;28;20538;-31
2022/04/20 05:46:55;;;;;;;0.50;0.30;;;;;;;;;;4176190;28;20048;-31
2022/04/20 05:48:58;;;;;;;0.10;0.10;;;;;;;;;;4159474;28;20088;-31
2022/04/20 05:50:59;;;;;;;0.57;0.30;;;;;;;;;;4175958;28;20061;-32
2022/04/20 05:53:03;;;;;;;1.52;0.30;;;;;;;;;;4176180;28;20079;-31
2022/04/20 05:55:05;;;;;;;0.38;0.20;;;;;;;;;;4176948;28;20057;-31
2022/04/20 05:57:10;;;;;;;0.65;0.45;;;;;;;;;;4176011;28;20102;-31
2022/04/20 05:59:13;;;;;;;0.47;0.20;;;;;;;;;;4175902;28;20057;-30
2022/04/20 06:01:18;;;;;;;0.73;0.30;;;;;;;;;;4175644;28;20065;-30
2022/04/20 06:03:19;;;;;;;1.02;0.30;;;;;;;;;;4175118;28;20393;-30
2022/04/20 06:05:22;;;;;;;0.22;0.20;;;;;;;;;;4160756;28;20116;-30
2022/04/20 06:07:55;;;;;;;1.27;0.30;;;;;;;;;;4173505;28;20057;-30
2022/04/20 06:10:17;;;;;;;0.57;0.20;;;;;;;;;;4175413;28;20493;-33
2022/04/20 06:12:27;;;;;;;0.40;0.30;;;;;;;;;;4163394;28;20442;-31
2022/04/20 06:14:36;;;;;;;1.42;0.47;;;;;;;;;;4175692;28;20057;-30
2022/04/20 06:16:48;;;;;;;1.27;0.30;;;;;;;;;;4173529;28;20049;-31
2022/04/20 06:18:58;;;;;;;0.88;0.30;;;;;;;;;;4162065;28;20068;-32
2022/04/20 06:21:17;;;;;;;0.75;0.30;;;;;;;;;;4159619;28;20115;-30
2022/04/20 06:23:37;;;;;;;1.00;0.30;;;;;;;;;;4166947;28;20501;-30
2022/04/20 06:26:01;;;;;;;0.70;0.40;;;;;;;;;;4155807;28;20053;-30
2022/04/20 06:28:17;;;;;;;0.77;0.40;;;;;;;;;;4168856;28;20071;-31
2022/04/20 06:30:42;;;;;;;0.60;0.30;;;;;;;;;;4166387;28;20053;-33
2022/04/20 06:33:21;;;;;;;0.75;0.32;;;;;;;;;;4177443;28;20064;-32
2022/04/20 06:35:43;;;;;;;0.20;0.20;;;;;;;;;;4177906;28;20064;-31
2022/04/20 06:37:48;;;;;;;0.85;0.32;;;;;;;;;;4162345;28;20115;-30
2022/04/20 06:40:03;;;;;;;0.45;0.40;;;;;;;;;;4164264;28;20087;-30
2022/04/20 06:42:19;;;;;;;0.82;0.20;;;;;;;;;;4170681;28;20056;-32
2022/04/20 06:44:40;;;;;;;0.40;0.30;;;;;;;;;;4171160;28;20045;-32
2022/04/20 06:47:05;;;;;;;1.33;0.30;;;;;;;;;;4170372;28;20056;-34
2022/04/20 06:49:44;;;;;;;;;;;;;;;;;;4184802;28;20056;-31
2022/04/20 06:59:17;;;;;;;1.70;0.60;;;;;;;;;;4170636;28;20049;-31
2022/04/20 07:01:51;;;;;;;1.88;0.30;;;;;;;;;;4165989;28;20314;-31
2022/04/20 07:04:12;;;;;;;1.35;0.40;;;;;;;;;;4171120;28;20124;-31
2022/04/20 07:06:33;;;;;;;4.05;0.40;;;;;;;;;;4171716;28;20119;-31
2022/04/20 07:09:04;;;;;;;0.82;0.30;;;;;;;;;;4164796;28;20064;-33
2022/04/20 07:11:15;;;;;;;0.47;0.30;;;;;;;;;;4171903;28;20079;-31
2022/04/20 07:13:19;;;;;;;2.45;0.40;;;;;;;;;;4165860;28;20635;-32
2022/04/20 07:15:21;;;;;;;3.92;0.43;;;;;;;;;;4166551;28;20099;-33
2022/04/20 07:17:22;;;;;;;0.75;0.32;;;;;;;;;;4172659;28;20103;-31
2022/04/20 07:19:32;;;;;;;0.40;0.30;;;;;;;;;;4163360;28;20195;-34
2022/04/20 07:21:52;;;;;;;;;;;;;;;;;;4175339;28;20564;-33
2022/04/20 07:24:02;;;;;;;0.75;0.40;;;;;;;;;;4166648;28;20442;-32
2022/04/20 07:26:41;;;;;;;;;;;;;;;;;;4167152;28;20052;-35
2022/04/20 07:28:46;;;;;;;1.25;0.30;;;;;;;;;;4167610;28;19928;-32
2022/04/20 07:31:10;;;;;;;0.15;0.10;;;;;;;;;;4165352;28;20053;-32
2022/04/20 07:33:30;;;;;;;;;;;;;;;;;;4173620;28;20057;-31
2022/04/20 07:35:45;;;;;;;0.73;0.30;;;;;;;;;;4167468;28;19928;-32
2022/04/20 07:38:03;;;;;;;0.65;0.20;;;;;;;;;;4145065;28;20753;-31
2022/04/20 07:40:23;;;;;;;1.95;0.20;;;;;;;;;;4164077;28;20053;-32
2022/04/20 07:42:43;;;;;;;0.40;0.22;;;;;;;;;;4168248;28;20110;-32
2022/04/20 07:45:01;;;;;;;1.45;0.20;;;;;;;;;;4166829;28;20520;-35
2022/04/20 07:47:17;;;;;;;0.40;0.30;;;;;;;;;;4174911;28;20049;-37
2022/04/20 07:52:36;;;;;;;1.17;0.50;;;;;;;;;;4169053;28;20114;-32
2022/04/20 07:54:52;;;;;;;1.98;0.38;;;;;;;;;;4165955;28;20107;-31
2022/04/20 07:57:15;;;;;;;0.55;0.20;;;;;;;;;;4164334;28;20064;-32
2022/04/20 07:59:46;;;;;;;0.60;0.30;;;;;;;;;;4154925;28;20053;-33
2022/04/20 08:01:57;;;;;;;0.50;0.30;;;;;;;;;;4158470;28;20172;-33
2022/04/20 08:04:31;;;;;;;0.50;0.30;;;;;;;;;;4174166;28;20496;-32
2022/04/20 08:06:38;;;;;;;2.40;0.30;;;;;;;;;;4169988;28;20777;-32
2022/04/20 08:08:40;;;;;;;0.43;0.28;;;;;;;;;;4167190;28;20131;-31
2022/04/20 08:10:41;;;;;;;0.57;0.20;;;;;;;;;;4172576;28;20129;-36
2022/04/20 08:12:47;;;;;;;0.50;0.40;;;;;;;;;;4163241;28;20057;-33
2022/04/20 08:14:55;;;;;;;1.58;0.30;;;;;;;;;;4158133;28;20106;-33
2022/04/20 08:17:00;;;;;;;0.68;0.30;;;;;;;;;;4167043;28;20052;-32
2022/04/20 08:19:01;;;;;;;0.40;0.20;;;;;;;;;;4173727;28;20127;-35
2022/04/20 08:21:22;;;;;;;0.82;0.28;;;;;;;;;;4170409;28;20489;-33
2022/04/20 08:23:26;;;;;;;1.10;0.30;;;;;;;;;;4165921;28;20226;-31
2022/04/20 08:25:28;;;;;;;0.60;0.22;;;;;;;;;;4163870;28;20428;-32
2022/04/20 08:27:30;;;;;;;0.38;0.20;;;;;;;;;;4161586;28;20060;-33
2022/04/20 08:29:31;;;;;;;0.85;0.40;;;;;;;;;;4162892;28;20132;-32
2022/04/20 08:31:32;;;;;;;0.60;0.20;;;;;;;;;;4174657;28;20056;-32
2022/04/20 08:33:33;;;;;;;0.88;0.30;;;;;;;;;;4162603;28;20411;-32
2022/04/20 08:35:36;;;;;;;0.20;0.20;;;;;;;;;;4161626;28;20091;-32
2022/04/20 08:37:37;;;;;;;0.47;0.25;;;;;;;;;;4167278;28;20103;-31
2022/04/20 08:39:41;;;;;;;0.30;0.22;;;;;;;;;;4171491;28;20068;-31
2022/04/20 08:41:47;;;;;;;0.50;0.30;;;;;;;;;;4169266;28;20138;-32
2022/04/20 08:43:48;;;;;;;1.45;0.30;;;;;;;;;;4173731;28;20056;-34
2022/04/20 08:45:49;;;;;;;0.40;0.20;;;;;;;;;;4176004;28;20052;-32
2022/04/20 08:47:51;;;;;;;0.68;0.40;;;;;;;;;;4172357;28;20096;-32
2022/04/20 08:49:52;;;;;;;0.65;0.20;;;;;;;;;;4174191;28;20650;-32
2022/04/20 08:54:13;;;;;;;0.20;0.20;;;;;;;;;;4174543;28;20052;-32
2022/04/20 08:58:34;;;;;;;0.30;0.30;;;;;;;;;;4170080;28;20053;-34
2022/04/20 09:00:35;;;;;;;2.42;0.25;;;;;;;;;;4169711;28;20071;-34
2022/04/20 09:02:37;;;;;;;0.32;0.20;;;;;;;;;;4168432;28;20064;-31
2022/04/20 09:04:38;;;;;;;0.80;0.30;;;;;;;;;;4167332;28;20117;-34
2022/04/20 09:06:45;;;;;;;0.38;0.20;;;;;;;;;;4166026;28;20053;-33
2022/04/20 09:08:46;;;;;;;0.57;0.20;;;;;;;;;;4165158;28;20053;-32
2022/04/20 09:10:47;;;;;;;0.20;0.20;;;;;;;;;;4166329;28;20389;-31
2022/04/20 09:13:07;;;;;;;0.95;0.20;;;;;;;;;;4165684;28;20502;-32
2022/04/20 09:15:15;;;;;;;0.65;0.20;;;;;;;;;;4164153;28;20110;-33
2022/04/20 09:17:19;;;;;;;0.60;0.20;;;;;;;;;;4168089;28;20063;-32
2022/04/20 09:19:27;;;;;;;0.40;0.30;;;;;;;;;;4175809;28;20520;-34
2022/04/20 09:21:31;;;;;;;1.42;0.20;;;;;;;;;;4168175;28;20094;-31
2022/04/20 09:23:32;;;;;;;1.20;0.20;;;;;;;;;;4166748;28;20408;-35
2022/04/20 09:25:38;;;;;;;0.85;0.32;;;;;;;;;;4166083;28;20052;-35
2022/04/20 09:27:41;;;;;;;0.32;0.20;;;;;;;;;;4164204;28;20053;-31
2022/04/20 09:29:52;;;;;;;0.35;0.20;;;;;;;;;;4162920;28;20056;-32
2022/04/20 09:31:53;;;;;;;0.25;0.20;;;;;;;;;;4164862;28;20110;-34
2022/04/20 09:33:55;;;;;;;0.57;0.20;;;;;;;;;;4162344;28;20052;-32
2022/04/20 09:35:57;;;;;;;0.88;0.40;;;;;;;;;;4163471;28;20056;-35
2022/04/20 09:38:05;;;;;;;1.27;0.32;;;;;;;;;;4163124;28;20656;-33
2022/04/20 09:40:34;;;;;;;0.82;0.30;;;;;;;;;;4160620;28;20174;-33
2022/04/20 09:42:35;;;;;;;0.88;0.25;;;;;;;;;;4167573;28;20148;-34
2022/04/20 09:44:40;;;;;;;0.75;0.20;;;;;;;;;;4163419;28;20492;-32
2022/04/20 09:49:13;;;;;;;0.10;0.10;;;;;;;;;;4166324;28;20057;-34
2022/04/20 09:51:20;;;;;;;0.45;0.30;;;;;;;;;;4161942;28;20061;-30
2022/04/20 09:53:32;;;;;;;0.10;0.10;;;;;;;;;;4166717;28;20334;-31
2022/04/20 09:55:35;;;;;;;1.23;0.32;;;;;;;;;;4179788;28;20493;-32
2022/04/20 09:57:37;;;;;;;0.50;0.28;;;;;;;;;;4179283;28;20056;-31
2022/04/20 10:00:09;;;;;;;1.02;0.25;;;;;;;;;;4167625;28;20057;-36
2022/04/20 10:02:17;;;;;;;0.95;0.30;;;;;;;;;;4166911;28;20056;-31
2022/04/20 10:04:18;;;;;;;1.35;0.22;;;;;;;;;;4174158;28;20507;-31
2022/04/20 10:06:19;;;;;;;0.30;0.20;;;;;;;;;;4176861;28;20049;-31
2022/04/20 10:08:20;;;;;;;0.75;0.47;;;;;;;;;;4186175;28;20106;-36
2022/04/20 10:10:22;;;;;;;1.17;0.20;;;;;;;;;;4183721;28;20199;-31
2022/04/20 10:12:24;;;;;;;2.13;0.32;;;;;;;;;;4178134;28;20098;-32
2022/04/20 10:16:48;;;;;;;0.40;0.30;;;;;;;;;;4183083;28;20079;-34
2022/04/20 10:18:50;;;;;;;1.02;0.20;;;;;;;;;;4186006;28;20071;-32
2022/04/20 10:20:55;;;;;;;2.03;0.30;;;;;;;;;;4182500;28;20056;-45
2022/04/20 10:23:00;;;;;;;0.63;0.35;;;;;;;;;;4189355;28;20098;-45
2022/04/20 10:25:02;;;;;;;2.30;0.40;;;;;;;;;;4179667;28;20105;-45
2022/04/20 10:27:09;;;;;;;0.80;0.22;;;;;;;;;;4184149;28;20495;-45
2022/04/20 10:29:37;;;;;;;1.42;0.30;;;;;;;;;;4178704;28;20552;-44
2022/04/20 10:31:41;;;;;;;0.75;0.40;;;;;;;;;;4179474;28;20171;-44
2022/04/20 10:33:43;;;;;;;0.73;0.47;;;;;;;;;;4172294;28;20081;-45
2022/04/20 10:36:04;;;;;;;1.65;0.40;;;;;;;;;;4162301;28;20098;-46
2022/04/20 10:38:12;;;;;;;1.65;0.45;;;;;;;;;;4170267;28;20087;-45
2022/04/20 10:40:33;;;;;;;0.70;0.40;;;;;;;;;;4170825;28;20599;-44
2022/04/20 10:42:34;;;;;;;1.20;0.40;;;;;;;;;;4173217;28;20087;-45
2022/04/20 10:45:05;;;;;;;0.35;0.35;;;;;;;;;;4179355;28;20045;-45
2022/04/20 10:47:06;;;;;;;0.35;0.35;;;;;;;;;;4177069;28;20049;-44
2022/04/20 10:49:17;;;;;;;2.15;0.30;;;;;;;;;;4160613;28;20049;-45
2022/04/20 10:51:22;;;;;;;0.32;0.30;;;;;;;;;;4166774;28;20064;-45
2022/04/20 10:53:23;;;;;;;1.25;0.38;;;;;;;;;;4177961;28;20103;-46
2022/04/20 10:55:28;;;;;;;0.40;0.35;;;;;;;;;;4170619;28;20375;-46
2022/04/20 10:57:34;;;;;;;0.52;0.40;;;;;;;;;;4175318;28;20516;-45
2022/04/20 10:59:37;;;;;;;1.38;0.43;;;;;;;;;;4166298;28;20057;-44
2022/04/20 11:02:03;;;;;;;1.35;0.30;;;;;;;;;;4175505;28;20053;-44
2022/04/20 11:04:05;;;;;;;0.40;0.40;;;;;;;;;;4176877;28;20151;-43
2022/04/20 11:06:07;;;;;;;0.43;0.40;;;;;;;;;;4178519;28;20060;-43
2022/04/20 11:08:12;;;;;;;0.50;0.40;;;;;;;;;;4176686;28;20045;-46
2022/04/20 11:10:13;;;;;;;1.17;0.30;;;;;;;;;;4176942;28;20107;-44
2022/04/20 11:19:33;;;;;;;0.47;0.38;;;;;;;;;;4166306;28;19947;-46
2022/04/20 11:21:54;;;;;;;0.45;0.40;;;;;;;;;;4172944;28;20057;-45
2022/04/20 11:24:01;;;;;;;0.30;0.30;;;;;;;;;;4154885;28;20144;-45
2022/04/20 11:26:10;;;;;;;0.60;0.40;;;;;;;;;;4173227;28;20126;-45
2022/04/20 11:28:11;;;;;;;0.40;0.30;;;;;;;;;;4174097;28;20114;-45
2022/04/20 11:30:13;;;;;;;0.88;0.52;;;;;;;;;;4168695;28;20053;-44
2022/04/20 11:32:15;;;;;;;0.65;0.52;;;;;;;;;;4173024;28;20104;-44
2022/04/20 11:34:33;;;;;;;1.60;0.57;;;;;;;;;;4173240;28;20076;-44
2022/04/20 11:36:37;;;;;;;0.98;0.50;;;;;;;;;;4171137;28;20189;-44
2022/04/20 11:38:48;;;;;;;0.63;0.40;;;;;;;;;;4177326;28;21037;-45
2022/04/20 11:40:51;;;;;;;0.40;0.40;;;;;;;;;;4177678;28;20428;-44
2022/04/20 11:43:05;;;;;;;1.23;0.50;;;;;;;;;;4163644;28;20064;-47
2022/04/20 11:45:08;;;;;;;1.33;0.50;;;;;;;;;;4172749;28;20052;-44
2022/04/20 11:47:11;;;;;;;1.85;0.60;;;;;;;;;;4185644;28;20064;-45
2022/04/20 11:49:13;;;;;;;4.03;0.70;;;;;;;;;;4170563;28;20113;-47
2022/04/20 11:51:27;;;;;;;0.60;0.60;;;;;;;;;;4165244;28;20059;-44
2022/04/20 11:53:36;;;;;;;1.15;0.50;;;;;;;;;;4174334;28;20055;-45
2022/04/20 11:56:08;;;;;;;0.35;0.35;;;;;;;;;;4178668;28;20116;-43
2022/04/20 11:58:15;;;;;;;1.20;0.50;;;;;;;;;;4173967;28;20090;-46
2022/04/20 12:00:20;;;;;;;0.82;0.60;;;;;;;;;;4178751;28;20088;-45
2022/04/20 12:02:21;;;;;;;0.52;0.52;;;;;;;;;;4178422;28;20086;-45
2022/04/20 12:04:31;;;;;;;0.50;0.50;;;;;;;;;;4176239;28;20068;-46
2022/04/20 12:06:32;;;;;;;0.95;0.68;;;;;;;;;;4172856;28;20064;-48
2022/04/20 12:08:35;;;;;;;0.95;0.77;;;;;;;;;;4186598;28;20053;-45
2022/04/20 12:10:38;;;;;;;0.60;0.60;;;;;;;;;;4174588;28;20368;-46
2022/04/20 12:12:42;;;;;;;0.57;0.50;;;;;;;;;;4167561;28;20064;-45
2022/04/20 12:14:46;;;;;;;1.02;0.80;;;;;;;;;;4167074;28;20412;-46
2022/04/20 12:16:48;;;;;;;0.47;0.45;;;;;;;;;;4166726;28;20045;-45
2022/04/20 12:18:54;;;;;;;0.68;0.60;;;;;;;;;;4172631;28;20057;-47
2022/04/20 12:20:57;;;;;;;2.25;1.00;;;;;;;;;;4167560;28;20057;-45
2022/04/20 12:23:05;;;;;;;0.80;0.80;;;;;;;;;;4166114;28;20577;-45
2022/04/20 12:25:11;;;;;;;1.08;0.60;;;;;;;;;;4167499;28;20057;-44
2022/04/20 12:27:24;;;;;;;0.68;0.68;;;;;;;;;;4165207;28;20463;-46
2022/04/20 12:29:31;;;;;;;0.80;0.80;;;;;;;;;;4168875;28;20064;-44
2022/04/20 12:31:33;;;;;;;1.02;0.80;;;;;;;;;;4172435;28;20068;-46
2022/04/20 12:33:37;;;;;;;0.50;0.50;;;;;;;;;;4162817;28;21344;-46
2022/04/20 12:36:02;;;;;;;0.75;0.75;;;;;;;;;;4171349;28;20114;-45
2022/04/20 12:38:11;;;;;;;0.73;0.73;;;;;;;;;;4181547;28;20048;-46
2022/04/20 12:40:20;;;;;;;0.80;0.77;;;;;;;;;;4176505;28;20052;-46
2022/04/20 12:42:21;;;;;;;1.03;0.93;;;;;;;;;;4175786;28;21768;-45
2022/04/20 12:44:51;;;;;;;0.80;0.80;;;;;;;;;;4170699;28;20049;-47
2022/04/20 12:46:52;;;;;;;0.70;0.70;;;;;;;;;;4176063;28;20053;-47
2022/04/20 12:48:54;;;;;;;1.48;0.90;;;;;;;;;;4176082;28;20053;-45
2022/04/20 12:50:55;;;;;;;0.82;0.82;;;;;;;;;;4177371;28;20553;-45
2022/04/20 12:52:59;;;;;;;0.60;0.60;;;;;;;;;;4178798;28;20058;-45
2022/04/20 12:55:15;;;;;;;1.83;1.08;;;;;;;;;;4180021;28;20153;-45
2022/04/20 13:02:04;;;;;;;1.75;0.93;;;;;;;;;;4167706;28;20053;-45
2022/04/20 13:04:05;;;;;;;0.70;0.70;;;;;;;;;;4177239;28;20044;-45
2022/04/20 13:06:11;;;;;;;0.65;0.65;;;;;;;;;;4172507;28;20057;-46
2022/04/20 13:08:14;;;;;;;0.80;0.68;;;;;;;;;;4153919;28;20425;-46
2022/04/20 13:10:15;;;;;;;1.10;1.00;;;;;;;;;;4172238;28;20057;-45
2022/04/20 13:12:17;;;;;;;2.72;0.93;;;;;;;;;;4172680;28;20146;-45
2022/04/20 13:14:19;;;;;;;0.88;0.88;;;;;;;;;;4166332;28;20126;-45
2022/04/20 13:16:21;;;;;;;2.38;0.80;;;;;;;;;;4175859;28;20064;-45
2022/04/20 13:18:22;;;;;;;0.73;0.57;;;;;;;;;;4172498;28;20433;-46
2022/04/20 13:20:28;;;;;;;1.30;0.80;;;;;;;;;;4173605;28;20423;-45
2022/04/20 13:22:29;;;;;;;0.63;0.63;;;;;;;;;;4184463;28;20048;-44
2022/04/20 13:29:13;;;;;;;0.60;0.60;;;;;;;;;;4186690;28;20446;-44
2022/04/20 13:31:15;;;;;;;0.88;0.70;;;;;;;;;;4183459;28;20060;-45
2022/04/20 13:33:16;;;;;;;0.98;0.70;;;;;;;;;;4180611;28;20064;-45
2022/04/20 13:35:18;;;;;;;1.17;0.85;;;;;;;;;;4182789;28;20049;-44